sensor_id;sensor_type;location;lat;lon;timestamp;pressure;altitude;pressure_sealevel;temperature;humidity
56402;BME280;42299;35.160;26.100;2023-01-25T00:01:04;101937.31;;;10.28;100.00
56402;BME280;42299;35.160;26.100;2023-01-25T00:02:26;101941.69;;;10.28;100.00
56402;BME280;42299;35.160;26.100;2023-01-25T00:03:49;101939.13;;;10.29;100.00
56402;BME280;42299;35.160;26.100;2023-01-25T00:05:11;101943.56;;;10.30;100.00
56402;BME280;42299;35.160;26.100;2023-01-25T00:06:33;101931.28;;;10.32;100.00
56402;BME280;42299;35.160;26.100;2023-01-25T00:07:57;101937.47;;;10.33;100.00
56402;BME280;42299;35.160;26.100;2023-01-25T00:09:20;101936.56;;;10.32;100.00
56402;BME280;42299;35.160;26.100;2023-01-25T00:10:42;101934.78;;;10.31;100.00
56402;BME280;42299;35.160;26.100;2023-01-25T00:12:05;101941.78;;;10.31;100.00
56402;BME280;42299;35.160;26.100;2023-01-25T00:13:27;101936.50;;;10.31;100.00
56402;BME280;42299;35.160;26.100;2023-01-25T00:14:48;101935.59;;;10.29;100.00
56402;BME280;42299;35.160;26.100;2023-01-25T00:16:11;101932.94;;;10.29;100.00
56402;BME280;42299;35.160;26.100;2023-01-25T00:17:32;101939.06;;;10.28;100.00
56402;BME280;42299;35.160;26.100;2023-01-25T00:18:55;101934.69;;;10.28;100.00
56402;BME280;42299;35.160;26.100;2023-01-25T00:20:17;101932.94;;;10.29;100.00
56402;BME280;42299;35.160;26.100;2023-01-25T00:21:39;101941.78;;;10.31;100.00
56402;BME280;42299;35.160;26.100;2023-01-25T00:23:03;101935.66;;;10.30;100.00
56402;BME280;42299;35.160;26.100;2023-01-25T00:24:25;101933.84;;;10.29;100.00
56402;BME280;42299;35.160;26.100;2023-01-25T00:25:47;101941.69;;;10.28;100.00
56402;BME280;42299;35.160;26.100;2023-01-25T00:27:09;101934.63;;;10.27;100.00
56402;BME280;42299;35.160;26.100;2023-01-25T00:28:31;101928.44;;;10.26;100.00
56402;BME280;42299;35.160;26.100;2023-01-25T00:29:52;101931.97;;;10.27;100.00
56402;BME280;42299;35.160;26.100;2023-01-25T00:31:20;101928.38;;;10.25;100.00
56402;BME280;42299;35.160;26.100;2023-01-25T00:32:47;101926.63;;;10.24;100.00
56402;BME280;42299;35.160;26.100;2023-01-25T00:34:37;101926.63;;;10.24;100.00
56402;BME280;42299;35.160;26.100;2023-01-25T00:36:00;101927.47;;;10.24;100.00
56402;BME280;42299;35.160;26.100;2023-01-25T00:37:27;101930.25;;;10.27;100.00
56402;BME280;42299;35.160;26.100;2023-01-25T00:38:53;101929.41;;;10.28;100.00
56402;BME280;42299;35.160;26.100;2023-01-25T00:40:16;101931.09;;;10.26;100.00
56402;BME280;42299;35.160;26.100;2023-01-25T00:41:38;101931.09;;;10.26;100.00
56402;BME280;42299;35.160;26.100;2023-01-25T00:43:00;101934.63;;;10.27;100.00
56402;BME280;42299;35.160;26.100;2023-01-25T00:44:25;101930.25;;;10.27;100.00
56402;BME280;42299;35.160;26.100;2023-01-25T00:45:47;101933.72;;;10.26;100.00
56402;BME280;42299;35.160;26.100;2023-01-25T00:47:10;101921.44;;;10.27;100.00
56402;BME280;42299;35.160;26.100;2023-01-25T00:48:31;101927.25;;;10.18;100.00
56402;BME280;42299;35.160;26.100;2023-01-25T00:49:54;101919.34;;;10.18;100.00
56402;BME280;42299;35.160;26.100;2023-01-25T00:51:17;101918.50;;;10.19;100.00
56402;BME280;42299;35.160;26.100;2023-01-25T00:52:39;101924.63;;;10.18;100.00
56402;BME280;42299;35.160;26.100;2023-01-25T00:54:04;101925.53;;;10.19;100.00
56402;BME280;42299;35.160;26.100;2023-01-25T00:55:25;101914.06;;;10.18;100.00
56402;BME280;42299;35.160;26.100;2023-01-25T00:56:48;101919.34;;;10.18;100.00
56402;BME280;42299;35.160;26.100;2023-01-25T00:58:12;101913.22;;;10.19;100.00
56402;BME280;42299;35.160;26.100;2023-01-25T00:59:35;101911.50;;;10.20;100.00
56402;BME280;42299;35.160;26.100;2023-01-25T01:00:56;101919.34;;;10.18;100.00
56402;BME280;42299;35.160;26.100;2023-01-25T01:02:19;101914.97;;;10.19;100.00
56402;BME280;42299;35.160;26.100;2023-01-25T01:03:41;101912.34;;;10.19;100.00
56402;BME280;42299;35.160;26.100;2023-01-25T01:05:04;101914.94;;;10.17;100.00
56402;BME280;42299;35.160;26.100;2023-01-25T01:06:26;101911.31;;;10.15;100.00
56402;BME280;42299;35.160;26.100;2023-01-25T01:07:48;101905.00;;;10.12;100.00
56402;BME280;42299;35.160;26.100;2023-01-25T01:09:16;101897.06;;;10.10;100.00
56402;BME280;42299;35.160;26.100;2023-01-25T01:10:38;101902.22;;;10.07;100.00
56402;BME280;42299;35.160;26.100;2023-01-25T01:12:00;101891.66;;;10.07;100.00
56402;BME280;42299;35.160;26.100;2023-01-25T01:13:24;101897.84;;;10.08;100.00
56402;BME280;42299;35.160;26.100;2023-01-25T01:14:47;101892.56;;;10.08;100.00
56402;BME280;42299;35.160;26.100;2023-01-25T01:16:10;101893.47;;;10.08;100.00
56402;BME280;42299;35.160;26.100;2023-01-25T01:17:32;101889.91;;;10.08;100.00
56402;BME280;42299;35.160;26.100;2023-01-25T01:18:54;101889.09;;;10.09;100.00
56402;BME280;42299;35.160;26.100;2023-01-25T01:20:15;101893.47;;;10.08;100.00
56402;BME280;42299;35.160;26.100;2023-01-25T01:21:40;101891.66;;;10.07;100.00
56402;BME280;42299;35.160;26.100;2023-01-25T01:23:02;101886.31;;;10.06;100.00
56402;BME280;42299;35.160;26.100;2023-01-25T01:24:26;101888.19;;;10.08;100.00
56402;BME280;42299;35.160;26.100;2023-01-25T01:25:47;101890.88;;;10.10;100.00
56402;BME280;42299;35.160;26.100;2023-01-25T01:27:10;101890.03;;;10.11;100.00
56402;BME280;42299;35.160;26.100;2023-01-25T01:28:34;101886.50;;;10.10;100.00
56402;BME280;42299;35.160;26.100;2023-01-25T01:29:56;101885.63;;;10.11;100.00
56402;BME280;42299;35.160;26.100;2023-01-25T01:31:19;101888.28;;;10.11;100.00
56402;BME280;42299;35.160;26.100;2023-01-25T01:32:56;101887.28;;;10.08;100.00
56402;BME280;42299;35.160;26.100;2023-01-25T01:34:19;101882.78;;;10.05;100.00
56402;BME280;42299;35.160;26.100;2023-01-25T01:35:40;101891.56;;;10.04;100.00
56402;BME280;42299;35.160;26.100;2023-01-25T01:37:03;101893.34;;;10.05;100.00
56402;BME280;42299;35.160;26.100;2023-01-25T01:38:24;101892.41;;;10.03;100.00
56402;BME280;42299;35.160;26.100;2023-01-25T01:39:48;101899.47;;;10.04;100.00
56402;BME280;42299;35.160;26.100;2023-01-25T01:41:11;101889.78;;;10.05;100.00
56402;BME280;42299;35.160;26.100;2023-01-25T01:42:32;101888.06;;;10.05;100.00
56402;BME280;42299;35.160;26.100;2023-01-25T01:43:56;101892.44;;;10.05;100.00
56402;BME280;42299;35.160;26.100;2023-01-25T01:45:44;101888.03;;;10.04;100.00
56402;BME280;42299;35.160;26.100;2023-01-25T01:47:15;101889.78;;;10.03;100.00
56402;BME280;42299;35.160;26.100;2023-01-25T01:48:41;101888.97;;;10.06;100.00
56402;BME280;42299;35.160;26.100;2023-01-25T01:50:13;101888.06;;;10.05;100.00
56402;BME280;42299;35.160;26.100;2023-01-25T01:51:44;101885.38;;;10.04;100.00
56402;BME280;42299;35.160;26.100;2023-01-25T01:53:13;101894.16;;;10.03;100.00
56402;BME280;42299;35.160;26.100;2023-01-25T01:54:38;101883.66;;;10.04;100.00
56402;BME280;42299;35.160;26.100;2023-01-25T01:56:09;101889.78;;;10.05;100.00
56402;BME280;42299;35.160;26.100;2023-01-25T01:57:35;101893.41;;;10.07;100.00
56402;BME280;42299;35.160;26.100;2023-01-25T01:58:59;101894.41;;;10.10;100.00
56402;BME280;42299;35.160;26.100;2023-01-25T02:00:24;101891.09;;;10.16;100.00
56402;BME280;42299;35.160;26.100;2023-01-25T02:01:48;101893.03;;;10.20;100.00
56402;BME280;42299;35.160;26.100;2023-01-25T02:03:10;101896.69;;;10.23;100.00
56402;BME280;42299;35.160;26.100;2023-01-25T02:04:35;101892.31;;;10.24;100.00
56402;BME280;42299;35.160;26.100;2023-01-25T02:06:09;101896.84;;;10.28;100.00
56402;BME280;42299;35.160;26.100;2023-01-25T02:07:35;101895.09;;;10.28;100.00
56402;BME280;42299;35.160;26.100;2023-01-25T02:08:59;101895.94;;;10.27;100.00
56402;BME280;42299;35.160;26.100;2023-01-25T02:10:22;101887.13;;;10.27;100.00
56402;BME280;42299;35.160;26.100;2023-01-25T02:11:50;101888.91;;;10.28;100.00
56402;BME280;42299;35.160;26.100;2023-01-25T02:13:13;101897.72;;;10.28;100.00
56402;BME280;42299;35.160;26.100;2023-01-25T02:14:36;101902.19;;;10.31;100.00
56402;BME280;42299;35.160;26.100;2023-01-25T02:16:01;101899.53;;;10.29;100.00
56402;BME280;42299;35.160;26.100;2023-01-25T02:17:23;101895.72;;;10.21;100.00
56402;BME280;42299;35.160;26.100;2023-01-25T02:18:53;101894.75;;;10.19;100.00
56402;BME280;42299;35.160;26.100;2023-01-25T02:20:18;101893.97;;;10.22;100.00
56402;BME280;42299;35.160;26.100;2023-01-25T02:21:46;101884.22;;;10.19;100.00
56402;BME280;42299;35.160;26.100;2023-01-25T02:23:15;101887.75;;;10.20;100.00
56402;BME280;42299;35.160;26.100;2023-01-25T02:24:41;101890.38;;;10.20;100.00
56402;BME280;42299;35.160;26.100;2023-01-25T02:26:10;101884.22;;;10.19;100.00
56402;BME280;42299;35.160;26.100;2023-01-25T02:27:32;101890.31;;;10.18;100.00
56402;BME280;42299;35.160;26.100;2023-01-25T02:28:59;101888.59;;;10.19;100.00
56402;BME280;42299;35.160;26.100;2023-01-25T02:30:23;101890.31;;;10.18;100.00
56402;BME280;42299;35.160;26.100;2023-01-25T02:31:46;101892.06;;;10.18;100.00
56402;BME280;42299;35.160;26.100;2023-01-25T02:33:10;101888.56;;;10.17;100.00
56402;BME280;42299;35.160;26.100;2023-01-25T02:34:33;101890.28;;;10.17;100.00
56402;BME280;42299;35.160;26.100;2023-01-25T02:36:00;101884.91;;;10.15;100.00
56402;BME280;42299;35.160;26.100;2023-01-25T02:37:39;101893.56;;;10.11;100.00
56402;BME280;42299;35.160;26.100;2023-01-25T02:39:03;101888.25;;;10.10;100.00
56402;BME280;42299;35.160;26.100;2023-01-25T02:40:28;101889.91;;;10.08;100.00
56402;BME280;42299;35.160;26.100;2023-01-25T02:41:53;101887.41;;;10.11;100.00
56402;BME280;42299;35.160;26.100;2023-01-25T02:43:16;101886.59;;;10.13;100.00
56402;BME280;42299;35.160;26.100;2023-01-25T02:44:40;101889.38;;;10.16;100.00
56402;BME280;42299;35.160;26.100;2023-01-25T02:46:10;101887.75;;;10.20;100.00
56402;BME280;42299;35.160;26.100;2023-01-25T02:47:38;101895.59;;;10.18;100.00
56402;BME280;42299;35.160;26.100;2023-01-25T02:49:00;101884.16;;;10.18;100.00
56402;BME280;42299;35.160;26.100;2023-01-25T02:50:23;101890.31;;;10.18;100.00
56402;BME280;42299;35.160;26.100;2023-01-25T02:51:46;101885.81;;;10.16;100.00
56402;BME280;42299;35.160;26.100;2023-01-25T02:53:10;101892.72;;;10.12;100.00
56402;BME280;42299;35.160;26.100;2023-01-25T02:54:31;101887.34;;;10.09;100.00
56402;BME280;42299;35.160;26.100;2023-01-25T02:55:53;101894.34;;;10.09;100.00
56402;BME280;42299;35.160;26.100;2023-01-25T02:57:16;101890.91;;;10.11;100.00
56402;BME280;42299;35.160;26.100;2023-01-25T02:58:39;101894.56;;;10.15;100.00
56402;BME280;42299;35.160;26.100;2023-01-25T03:00:00;101892.94;;;10.17;100.00
56402;BME280;42299;35.160;26.100;2023-01-25T03:01:23;101889.47;;;10.19;100.00
56402;BME280;42299;35.160;26.100;2023-01-25T03:02:45;101891.34;;;10.22;100.00
56402;BME280;42299;35.160;26.100;2023-01-25T03:04:07;101879.06;;;10.22;100.00
56402;BME280;42299;35.160;26.100;2023-01-25T03:05:30;101888.78;;;10.23;100.00
56402;BME280;42299;35.160;26.100;2023-01-25T03:06:52;101895.88;;;10.26;100.00
56402;BME280;42299;35.160;26.100;2023-01-25T03:08:14;101888.78;;;10.25;100.00
56402;BME280;42299;35.160;26.100;2023-01-25T03:09:36;101889.69;;;10.25;100.00
56402;BME280;42299;35.160;26.100;2023-01-25T03:11:01;101894.94;;;10.24;100.00
56402;BME280;42299;35.160;26.100;2023-01-25T03:12:26;101887.81;;;10.21;100.00
56402;BME280;42299;35.160;26.100;2023-01-25T03:13:49;101882.38;;;10.17;100.00
56402;BME280;42299;35.160;26.100;2023-01-25T03:15:12;101884.03;;;10.15;100.00
56402;BME280;42299;35.160;26.100;2023-01-25T03:16:35;101888.41;;;10.14;100.00
56402;BME280;42299;35.160;26.100;2023-01-25T03:17:59;101883.19;;;10.16;100.00
56402;BME280;42299;35.160;26.100;2023-01-25T03:19:21;101884.91;;;10.15;100.00
56402;BME280;42299;35.160;26.100;2023-01-25T03:20:43;101892.97;;;10.18;100.00
56402;BME280;42299;35.160;26.100;2023-01-25T03:22:04;101885.94;;;10.19;100.00
56402;BME280;42299;35.160;26.100;2023-01-25T03:23:29;101881.69;;;10.22;100.00
56402;BME280;42299;35.160;26.100;2023-01-25T03:24:50;101872.94;;;10.23;100.00
56402;BME280;42299;35.160;26.100;2023-01-25T03:26:16;101874.75;;;10.26;100.00
56402;BME280;42299;35.160;26.100;2023-01-25T03:27:55;101876.50;;;10.25;100.00
56402;BME280;42299;35.160;26.100;2023-01-25T03:29:18;101872.03;;;10.23;100.00
56402;BME280;42299;35.160;26.100;2023-01-25T03:30:42;101885.16;;;10.21;100.00
56402;BME280;42299;35.160;26.100;2023-01-25T03:32:05;101878.03;;;10.19;100.00
56402;BME280;42299;35.160;26.100;2023-01-25T03:33:27;101882.47;;;10.20;100.00
56402;BME280;42299;35.160;26.100;2023-01-25T03:34:49;101876.34;;;10.21;100.00
56402;BME280;42299;35.160;26.100;2023-01-25T03:36:13;101874.69;;;10.23;100.00
56402;BME280;42299;35.160;26.100;2023-01-25T03:37:36;101874.63;;;10.21;100.00
56402;BME280;42299;35.160;26.100;2023-01-25T03:38:59;101871.91;;;10.20;100.00
56402;BME280;42299;35.160;26.100;2023-01-25T03:40:20;101872.75;;;10.19;100.00
56402;BME280;42299;35.160;26.100;2023-01-25T03:41:44;101877.13;;;10.18;100.00
56402;BME280;42299;35.160;26.100;2023-01-25T03:43:08;101885.91;;;10.17;100.00
56402;BME280;42299;35.160;26.100;2023-01-25T03:44:31;101884.03;;;10.15;100.00
56402;BME280;42299;35.160;26.100;2023-01-25T03:45:55;101881.31;;;10.13;100.00
56402;BME280;42299;35.160;26.100;2023-01-25T03:47:18;101895.34;;;10.12;100.00
56402;BME280;42299;35.160;26.100;2023-01-25T03:48:41;101905.00;;;10.12;100.00
56402;BME280;42299;35.160;26.100;2023-01-25T03:50:02;101904.91;;;10.09;100.00
56402;BME280;42299;35.160;26.100;2023-01-25T03:51:26;101911.03;;;10.08;100.00
56402;BME280;42299;35.160;26.100;2023-01-25T03:52:51;101914.44;;;10.05;100.00
56402;BME280;42299;35.160;26.100;2023-01-25T03:54:25;101903.78;;;10.02;100.00
56402;BME280;42299;35.160;26.100;2023-01-25T03:55:47;101909.91;;;10.01;100.00
56402;BME280;42299;35.160;26.100;2023-01-25T03:57:09;101909.78;;;9.98;100.00
56402;BME280;42299;35.160;26.100;2023-01-25T03:58:43;101915.03;;;9.96;100.00
56402;BME280;42299;35.160;26.100;2023-01-25T04:00:07;101911.34;;;9.93;100.00
56402;BME280;42299;35.160;26.100;2023-01-25T04:01:42;101925.34;;;9.90;100.00
56402;BME280;42299;35.160;26.100;2023-01-25T04:03:04;101921.91;;;9.93;100.00
56402;BME280;42299;35.160;26.100;2023-01-25T04:04:25;101922.13;;;9.99;100.00
56402;BME280;42299;35.160;26.100;2023-01-25T04:05:48;101914.44;;;10.05;100.00
56402;BME280;42299;35.160;26.100;2023-01-25T04:07:11;101919.09;;;10.12;100.00
56402;BME280;42299;35.160;26.100;2023-01-25T04:08:34;101922.00;;;10.18;100.00
56402;BME280;42299;35.160;26.100;2023-01-25T04:09:58;101912.47;;;10.22;100.00
56402;BME280;42299;35.160;26.100;2023-01-25T04:11:20;101916.91;;;10.23;100.00
56402;BME280;42299;35.160;26.100;2023-01-25T04:12:43;101924.91;;;10.26;100.00
56402;BME280;42299;35.160;26.100;2023-01-25T04:14:08;101928.50;;;10.28;100.00
56402;BME280;42299;35.160;26.100;2023-01-25T04:15:41;101926.75;;;10.28;100.00
56402;BME280;42299;35.160;26.100;2023-01-25T04:17:14;101927.66;;;10.29;100.00
56402;BME280;42299;35.160;26.100;2023-01-25T04:18:56;101921.56;;;10.31;100.00
56402;BME280;42299;35.160;26.100;2023-01-25T04:20:20;101930.47;;;10.33;100.00
56402;BME280;42299;35.160;26.100;2023-01-25T04:21:41;101926.06;;;10.34;100.00
56402;BME280;42299;35.160;26.100;2023-01-25T04:23:04;101929.50;;;10.31;100.00
56402;BME280;42299;35.160;26.100;2023-01-25T04:24:30;101923.22;;;10.28;100.00
56402;BME280;42299;35.160;26.100;2023-01-25T04:25:55;101929.41;;;10.28;100.00
56402;BME280;42299;35.160;26.100;2023-01-25T04:27:16;101934.75;;;10.30;100.00
56402;BME280;42299;35.160;26.100;2023-01-25T04:28:48;101934.78;;;10.31;100.00
56402;BME280;42299;35.160;26.100;2023-01-25T04:30:13;101933.16;;;10.35;100.00
56402;BME280;42299;35.160;26.100;2023-01-25T04:31:36;101934.06;;;10.35;100.00
56402;BME280;42299;35.160;26.100;2023-01-25T04:33:02;101940.31;;;10.39;100.00
56402;BME280;42299;35.160;26.100;2023-01-25T04:34:25;101928.03;;;10.39;100.00
56402;BME280;42299;35.160;26.100;2023-01-25T04:35:47;101934.22;;;10.40;100.00
56402;BME280;42299;35.160;26.100;2023-01-25T04:37:12;101929.78;;;10.39;100.00
56402;BME280;42299;35.160;26.100;2023-01-25T04:38:44;101926.06;;;10.34;100.00
56402;BME280;42299;35.160;26.100;2023-01-25T04:40:08;101930.38;;;10.30;100.00
56402;BME280;42299;35.160;26.100;2023-01-25T04:41:35;101936.47;;;10.29;100.00
56402;BME280;42299;35.160;26.100;2023-01-25T04:42:57;101934.69;;;10.28;100.00
56402;BME280;42299;35.160;26.100;2023-01-25T04:44:20;101936.47;;;10.29;100.00
56402;BME280;42299;35.160;26.100;2023-01-25T04:45:43;101928.56;;;10.29;100.00
56402;BME280;42299;35.160;26.100;2023-01-25T04:47:14;101936.47;;;10.29;100.00
56402;BME280;42299;35.160;26.100;2023-01-25T04:48:36;101937.38;;;10.30;100.00
56402;BME280;42299;35.160;26.100;2023-01-25T04:50:01;101940.91;;;10.30;100.00
56402;BME280;42299;35.160;26.100;2023-01-25T04:51:25;101946.28;;;10.33;100.00
56402;BME280;42299;35.160;26.100;2023-01-25T04:52:47;101941.91;;;10.34;100.00
56402;BME280;42299;35.160;26.100;2023-01-25T04:54:08;101947.25;;;10.35;100.00
56402;BME280;42299;35.160;26.100;2023-01-25T04:55:31;101950.72;;;10.34;100.00
56402;BME280;42299;35.160;26.100;2023-01-25T04:56:54;101950.72;;;10.34;100.00
56402;BME280;42299;35.160;26.100;2023-01-25T04:58:15;101952.41;;;10.32;100.00
56402;BME280;42299;35.160;26.100;2023-01-25T04:59:38;101954.16;;;10.32;100.00
56402;BME280;42299;35.160;26.100;2023-01-25T05:01:02;101950.53;;;10.28;100.00
56402;BME280;42299;35.160;26.100;2023-01-25T05:02:26;101958.28;;;10.24;100.00
56402;BME280;42299;35.160;26.100;2023-01-25T05:03:49;101957.19;;;10.19;100.00
56402;BME280;42299;35.160;26.100;2023-01-25T05:05:21;101952.63;;;10.15;100.00
56402;BME280;42299;35.160;26.100;2023-01-25T05:06:43;101958.91;;;10.17;100.00
56402;BME280;42299;35.160;26.100;2023-01-25T05:08:07;101955.38;;;10.18;100.00
56402;BME280;42299;35.160;26.100;2023-01-25T05:09:28;101959.06;;;10.21;100.00
56402;BME280;42299;35.160;26.100;2023-01-25T05:10:51;101954.78;;;10.25;100.00
56402;BME280;42299;35.160;26.100;2023-01-25T05:12:27;101968.03;;;10.26;100.00
56402;BME280;42299;35.160;26.100;2023-01-25T05:13:53;101964.69;;;10.30;100.00
56402;BME280;42299;35.160;26.100;2023-01-25T05:15:21;101962.97;;;10.32;100.00
56402;BME280;42299;35.160;26.100;2023-01-25T05:16:45;101960.44;;;10.35;100.00
56402;BME280;42299;35.160;26.100;2023-01-25T05:18:08;101960.50;;;10.37;100.00
56402;BME280;42299;35.160;26.100;2023-01-25T05:19:30;101956.97;;;10.36;100.00
56402;BME280;42299;35.160;26.100;2023-01-25T05:20:57;101964.91;;;10.38;100.00
56402;BME280;42299;35.160;26.100;2023-01-25T05:22:22;101957.00;;;10.38;100.00
56402;BME280;42299;35.160;26.100;2023-01-25T05:23:46;101964.97;;;10.39;100.00
56402;BME280;42299;35.160;26.100;2023-01-25T05:25:08;101968.59;;;10.42;100.00
56402;BME280;42299;35.160;26.100;2023-01-25T05:26:51;101963.41;;;10.45;100.00
56402;BME280;42299;35.160;26.100;2023-01-25T05:28:34;101968.81;;;10.48;100.00
56402;BME280;42299;35.160;26.100;2023-01-25T05:30:20;101969.06;;;10.55;100.00
56402;BME280;42299;35.160;26.100;2023-01-25T05:32:05;101969.28;;;10.61;100.00
56402;BME280;42299;35.160;26.100;2023-01-25T05:33:27;101968.38;;;10.61;100.00
56402;BME280;42299;35.160;26.100;2023-01-25T05:34:50;101970.06;;;10.59;100.00
56402;BME280;42299;35.160;26.100;2023-01-25T05:36:13;101981.38;;;10.55;100.00
56402;BME280;42299;35.160;26.100;2023-01-25T05:37:36;101972.50;;;10.53;100.00
56402;BME280;42299;35.160;26.100;2023-01-25T05:39:04;101974.16;;;10.51;100.00
56402;BME280;42299;35.160;26.100;2023-01-25T05:40:26;101975.88;;;10.49;100.00
56402;BME280;42299;35.160;26.100;2023-01-25T05:41:53;101974.97;;;10.48;100.00
56402;BME280;42299;35.160;26.100;2023-01-25T05:43:15;101975.91;;;10.50;100.00
56402;BME280;42299;35.160;26.100;2023-01-25T05:44:37;101977.78;;;10.53;100.00
56402;BME280;42299;35.160;26.100;2023-01-25T05:46:00;101978.63;;;10.52;100.00
56402;BME280;42299;35.160;26.100;2023-01-25T05:47:24;101978.47;;;10.47;100.00
56402;BME280;42299;35.160;26.100;2023-01-25T05:48:49;101975.66;;;10.43;100.00
56402;BME280;42299;35.160;26.100;2023-01-25T05:50:10;101977.50;;;10.45;100.00
56402;BME280;42299;35.160;26.100;2023-01-25T05:51:47;101972.34;;;10.48;100.00
56402;BME280;42299;35.160;26.100;2023-01-25T05:53:09;101975.13;;;10.53;100.00
56402;BME280;42299;35.160;26.100;2023-01-25T05:54:33;101971.81;;;10.58;100.00
56402;BME280;42299;35.160;26.100;2023-01-25T05:56:03;101965.94;;;10.67;100.00
56402;BME280;42299;35.160;26.100;2023-01-25T05:57:26;101969.69;;;10.73;100.00
56402;BME280;42299;35.160;26.100;2023-01-25T05:58:52;101966.44;;;10.81;100.00
56402;BME280;42299;35.160;26.100;2023-01-25T06:00:15;101976.34;;;10.88;100.00
56402;BME280;42299;35.160;26.100;2023-01-25T06:01:38;101972.13;;;10.93;100.00
56402;BME280;42299;35.160;26.100;2023-01-25T06:03:03;101971.41;;;10.98;100.00
56402;BME280;42299;35.160;26.100;2023-01-25T06:04:27;101971.47;;;11.00;100.00
56402;BME280;42299;35.160;26.100;2023-01-25T06:05:54;101973.47;;;11.07;100.00
56402;BME280;42299;35.160;26.100;2023-01-25T06:07:15;101973.63;;;11.11;100.00
56402;BME280;42299;35.160;26.100;2023-01-25T06:08:38;101974.66;;;11.16;100.00
56402;BME280;42299;35.160;26.100;2023-01-25T06:10:00;101975.75;;;11.22;100.00
56402;BME280;42299;35.160;26.100;2023-01-25T06:11:23;101977.63;;;11.26;100.00
56402;BME280;42299;35.160;26.100;2023-01-25T06:12:47;101980.31;;;11.27;100.00
56402;BME280;42299;35.160;26.100;2023-01-25T06:14:09;101985.66;;;11.29;100.00
56402;BME280;42299;35.160;26.100;2023-01-25T06:15:31;101990.97;;;11.30;100.00
56402;BME280;42299;35.160;26.100;2023-01-25T06:17:13;101991.81;;;11.29;100.00
56402;BME280;42299;35.160;26.100;2023-01-25T06:18:52;101987.41;;;11.28;100.00
56402;BME280;42299;35.160;26.100;2023-01-25T06:20:28;101990.00;;;11.27;100.00
56402;BME280;42299;35.160;26.100;2023-01-25T06:21:59;101988.25;;;11.27;100.00
56402;BME280;42299;35.160;26.100;2023-01-25T06:23:22;101989.16;;;11.29;100.00
56402;BME280;42299;35.160;26.100;2023-01-25T06:24:44;101994.47;;;11.29;100.00
56402;BME280;42299;35.160;26.100;2023-01-25T06:26:10;101992.72;;;11.30;100.00
56402;BME280;42299;35.160;26.100;2023-01-25T06:27:33;101997.16;;;11.31;100.00
56402;BME280;42299;35.160;26.100;2023-01-25T06:28:56;101999.81;;;11.31;100.00
56402;BME280;42299;35.160;26.100;2023-01-25T06:30:18;101996.31;;;11.32;100.00
56402;BME280;42299;35.160;26.100;2023-01-25T06:31:40;101998.97;;;11.32;100.00
56402;BME280;42299;35.160;26.100;2023-01-25T06:33:02;101995.53;;;11.34;100.00
56402;BME280;42299;35.160;26.100;2023-01-25T06:34:27;101990.38;;;11.39;100.00
56402;BME280;42299;35.160;26.100;2023-01-25T06:35:49;101993.09;;;11.40;100.00
56402;BME280;42299;35.160;26.100;2023-01-25T06:37:12;101996.88;;;11.48;100.00
56402;BME280;42299;35.160;26.100;2023-01-25T06:38:34;101995.31;;;11.55;100.00
56402;BME280;42299;35.160;26.100;2023-01-25T06:39:57;101993.75;;;11.62;100.00
56402;BME280;42299;35.160;26.100;2023-01-25T06:41:19;102000.16;;;11.68;100.00
56402;BME280;42299;35.160;26.100;2023-01-25T06:42:42;102003.91;;;11.75;100.00
56402;BME280;42299;35.160;26.100;2023-01-25T06:44:05;102001.34;;;11.78;100.00
56402;BME280;42299;35.160;26.100;2023-01-25T06:45:28;101997.84;;;11.79;100.00
56402;BME280;42299;35.160;26.100;2023-01-25T06:46:50;102007.63;;;11.81;100.00
56402;BME280;42299;35.160;26.100;2023-01-25T06:48:11;101994.44;;;11.83;100.00
56402;BME280;42299;35.160;26.100;2023-01-25T06:49:35;101997.25;;;11.87;100.00
56402;BME280;42299;35.160;26.100;2023-01-25T06:50:59;101996.41;;;11.90;100.00
56402;BME280;42299;35.160;26.100;2023-01-25T06:52:21;102002.66;;;11.92;100.00
56402;BME280;42299;35.160;26.100;2023-01-25T06:53:45;101994.00;;;11.97;100.00
56402;BME280;42299;35.160;26.100;2023-01-25T06:55:08;102004.22;;;12.15;100.00
56402;BME280;42299;35.160;26.100;2023-01-25T06:56:33;102002.28;;;12.40;100.00
56402;BME280;42299;35.160;26.100;2023-01-25T06:57:59;102004.97;;;12.72;100.00
56402;BME280;42299;35.160;26.100;2023-01-25T06:59:21;102014.72;;;13.08;100.00
56402;BME280;42299;35.160;26.100;2023-01-25T07:00:44;102009.38;;;13.41;100.00
56402;BME280;42299;35.160;26.100;2023-01-25T07:02:09;102016.34;;;13.73;100.00
56402;BME280;42299;35.160;26.100;2023-01-25T07:03:32;102016.09;;;14.02;100.00
56402;BME280;42299;35.160;26.100;2023-01-25T07:04:56;102020.13;;;14.23;100.00
56402;BME280;42299;35.160;26.100;2023-01-25T07:06:19;102009.66;;;14.32;100.00
56402;BME280;42299;35.160;26.100;2023-01-25T07:07:44;102022.16;;;14.36;100.00
56402;BME280;42299;35.160;26.100;2023-01-25T07:09:09;102016.94;;;14.40;100.00
56402;BME280;42299;35.160;26.100;2023-01-25T07:10:32;102012.59;;;14.43;100.00
56402;BME280;42299;35.160;26.100;2023-01-25T07:11:55;102021.47;;;14.45;100.00